Airport View

Enter AWOS ICAO identifier for current METAR.

ex. KFNL

KU42 080405Z AUTO 25006KT 10SM CLR 23/01 A2992 RMK AO1 T02270010

8 Jul 2020 04:04

Frequency: 134.425

Phone: 801-562-0271

Other Area AWOS: KSLC - KTVY - KHCR - K36U

TAF KSLC 072321Z 0800/0906 35010KT P6SM SKC FM080600 35006KT P6SM SKC FM081100 15004KT P6SM SKC FM081500 33006KT P6SM SKC FM090500 15004KT P6SM SKC